createdAt,value
2023-05-02T00:00:39.762Z,8.17
2023-05-02T00:03:12.913Z,8.07
2023-05-02T00:05:45.837Z,7.00
2023-05-02T00:08:18.723Z,7.77
2023-05-02T00:10:51.541Z,8.10
2023-05-02T00:13:28.176Z,7.40
2023-05-02T00:16:03.935Z,7.70
2023-05-02T00:18:36.875Z,8.30
2023-05-02T00:21:12.831Z,7.37
2023-05-02T00:23:45.640Z,7.93
2023-05-02T00:26:18.517Z,7.93
2023-05-02T00:28:55.552Z,7.40
2023-05-02T00:31:28.541Z,7.13
2023-05-02T00:34:01.375Z,7.60
2023-05-02T00:36:34.408Z,7.17
2023-05-02T00:39:07.362Z,7.13
2023-05-02T00:41:40.261Z,7.40
2023-05-02T00:44:14.598Z,7.87
2023-05-02T00:46:47.556Z,7.43
2023-05-02T00:49:20.404Z,6.47
2023-05-02T00:51:54.356Z,6.07
2023-05-02T00:54:27.148Z,6.73
2023-05-02T00:57:00.070Z,6.80
2023-05-02T00:59:34.830Z,6.53
2023-05-02T01:02:12.739Z,6.90
2023-05-02T01:04:51.726Z,6.73
2023-05-02T01:07:28.712Z,6.43
2023-05-02T01:10:06.274Z,6.60
2023-05-02T01:12:42.737Z,6.17
2023-05-02T01:15:20.281Z,7.10
2023-05-02T01:17:55.060Z,6.13
2023-05-02T01:20:29.030Z,6.10
2023-05-02T01:23:05.957Z,5.80
2023-05-02T01:25:50.719Z,6.07
2023-05-02T01:28:30.045Z,5.97
2023-05-02T01:31:06.546Z,6.60
2023-05-02T01:33:40.295Z,6.00
2023-05-02T01:36:14.308Z,6.53
2023-05-02T01:38:47.889Z,6.13
2023-05-02T01:41:24.639Z,6.20
2023-05-02T01:43:58.848Z,6.10
2023-05-02T01:46:34.421Z,6.77
2023-05-02T01:49:09.215Z,6.27
2023-05-02T01:51:45.052Z,5.80
2023-05-02T01:54:21.009Z,5.70
2023-05-02T01:56:54.458Z,5.47
2023-05-02T01:59:30.440Z,6.20
2023-05-02T02:02:05.990Z,5.37
2023-05-02T02:04:40.321Z,6.03
2023-05-02T02:07:14.453Z,5.87
2023-05-02T02:09:47.263Z,5.37
2023-05-02T02:12:24.623Z,5.23
2023-05-02T02:14:58.324Z,5.77
2023-05-02T02:17:37.793Z,5.90
2023-05-02T02:20:11.580Z,5.50
2023-05-02T02:22:45.355Z,5.57
2023-05-02T02:25:18.859Z,5.27
2023-05-02T02:27:51.818Z,5.80
2023-05-02T02:30:24.751Z,5.80
2023-05-02T02:32:59.173Z,5.87
2023-05-02T02:35:35.100Z,5.70
2023-05-02T02:38:12.111Z,5.30
2023-05-02T02:40:48.067Z,5.13
2023-05-02T02:43:24.406Z,4.83
2023-05-02T02:46:03.622Z,5.23
2023-05-02T02:48:39.576Z,4.73
2023-05-02T02:51:16.080Z,4.67
2023-05-02T02:53:54.908Z,5.03
2023-05-02T02:56:29.184Z,5.27
2023-05-02T02:59:07.269Z,5.17
2023-05-02T03:01:43.741Z,4.40
2023-05-02T03:04:20.214Z,5.00
2023-05-02T03:06:53.293Z,4.30
2023-05-02T03:09:30.218Z,4.03
2023-05-02T03:12:03.282Z,4.37
2023-05-02T03:14:37.015Z,3.90
2023-05-02T03:17:10.736Z,4.40
2023-05-02T03:19:45.149Z,4.60
2023-05-02T03:22:17.950Z,4.53
2023-05-02T03:24:50.801Z,4.40
2023-05-02T03:27:23.662Z,3.93
2023-05-02T03:29:56.484Z,4.17
2023-05-02T03:32:29.619Z,4.93
2023-05-02T03:35:03.987Z,4.47
2023-05-02T03:37:38.438Z,4.40
2023-05-02T03:40:11.506Z,4.23
2023-05-02T03:42:44.630Z,4.17
2023-05-02T03:45:20.242Z,4.50
2023-05-02T03:47:54.368Z,4.33
2023-05-02T03:50:30.353Z,4.57
2023-05-02T03:53:03.341Z,4.73
2023-05-02T03:55:40.116Z,4.10
2023-05-02T03:58:13.156Z,5.30
2023-05-02T04:00:45.869Z,4.80
2023-05-02T04:03:18.765Z,4.20
2023-05-02T04:05:53.218Z,4.07
2023-05-02T04:08:26.292Z,4.83
2023-05-02T04:10:59.141Z,4.53
2023-05-02T04:13:32.100Z,4.83
2023-05-02T04:16:08.030Z,4.17
2023-05-02T04:18:40.875Z,4.77
2023-05-02T04:21:15.084Z,4.50
2023-05-02T04:23:48.564Z,4.10
2023-05-02T04:26:21.680Z,4.20
2023-05-02T04:28:54.597Z,4.37
2023-05-02T04:31:28.181Z,4.00
2023-05-02T04:34:01.139Z,4.43
2023-05-02T04:36:35.819Z,4.33
2023-05-02T04:39:08.597Z,4.40
2023-05-02T04:41:41.634Z,4.30
2023-05-02T04:44:14.522Z,4.07
2023-05-02T04:46:47.530Z,4.23
2023-05-02T04:49:20.295Z,4.70
2023-05-02T04:51:54.408Z,4.30
2023-05-02T04:54:28.041Z,3.93
2023-05-02T04:57:03.755Z,3.97
2023-05-02T04:59:37.135Z,4.03
2023-05-02T05:02:12.702Z,3.97
2023-05-02T05:04:48.304Z,4.10
2023-05-02T05:07:22.573Z,4.37
2023-05-02T05:09:55.322Z,4.40
2023-05-02T05:12:28.198Z,3.90
2023-05-02T05:15:01.044Z,4.13
2023-05-02T05:17:34.237Z,4.43
2023-05-02T05:20:09.561Z,4.87
2023-05-02T05:22:46.547Z,4.50
2023-05-02T05:25:19.669Z,4.07
2023-05-02T05:27:53.620Z,4.43
2023-05-02T05:30:29.528Z,4.43
2023-05-02T05:33:02.405Z,4.47
2023-05-02T05:35:37.857Z,4.23
2023-05-02T05:38:12.200Z,4.50
2023-05-02T05:40:45.331Z,4.57
2023-05-02T05:43:21.177Z,4.40
2023-05-02T05:45:54.301Z,4.13
2023-05-02T05:48:27.579Z,4.50
2023-05-02T05:51:04.528Z,4.50
2023-05-02T05:53:38.862Z,5.20
2023-05-02T05:56:11.890Z,4.20
2023-05-02T05:58:50.006Z,4.63
2023-05-02T06:01:23.018Z,4.90
2023-05-02T06:03:56.072Z,4.30
2023-05-02T06:06:29.413Z,4.80
2023-05-02T06:09:04.109Z,5.03
2023-05-02T06:11:37.992Z,4.87
2023-05-02T06:14:18.657Z,5.20
2023-05-02T06:16:54.300Z,6.00
2023-05-02T06:19:27.227Z,6.63
2023-05-02T06:22:00.200Z,4.97
2023-05-02T06:24:34.707Z,5.63
2023-05-02T06:27:10.782Z,7.00
2023-05-02T06:29:43.990Z,4.70
2023-05-02T06:32:17.164Z,8.30
2023-05-02T06:34:50.069Z,7.90
2023-05-02T06:37:23.226Z,8.53
2023-05-02T06:39:58.558Z,7.77
2023-05-02T06:42:34.405Z,8.93
2023-05-02T06:45:07.774Z,7.50
2023-05-02T06:47:40.777Z,8.50
2023-05-02T06:50:13.728Z,8.57
2023-05-02T06:52:48.768Z,7.40
2023-05-02T06:55:23.123Z,8.07
2023-05-02T06:57:56.376Z,6.37
2023-05-02T07:00:29.327Z,7.57
2023-05-02T07:03:02.292Z,8.70
2023-05-02T07:05:35.500Z,7.00
2023-05-02T07:08:09.142Z,7.50
2023-05-02T07:10:43.522Z,7.43
2023-05-02T07:13:16.354Z,7.30
2023-05-02T07:15:49.233Z,7.77
2023-05-02T07:18:22.531Z,7.23
2023-05-02T07:20:58.364Z,6.60
2023-05-02T07:23:31.412Z,6.37
2023-05-02T07:26:07.008Z,4.97
2023-05-02T07:28:40.279Z,6.67
2023-05-02T07:31:13.154Z,6.47
2023-05-02T07:33:46.174Z,6.63
2023-05-02T07:36:19.135Z,5.53
2023-05-02T07:38:52.150Z,6.20
2023-05-02T07:41:26.687Z,6.63
2023-05-02T07:43:59.769Z,6.70
2023-05-02T07:46:32.880Z,6.67
2023-05-02T07:49:05.975Z,6.37
2023-05-02T07:51:39.968Z,5.93
2023-05-02T07:54:18.820Z,5.93
2023-05-02T07:56:53.122Z,5.60
2023-05-02T07:59:26.097Z,4.97
2023-05-02T08:01:58.925Z,4.70
2023-05-02T08:04:31.763Z,5.30
2023-05-02T08:07:04.989Z,5.20
2023-05-02T08:09:38.490Z,5.83
2023-05-02T08:12:12.797Z,4.93
2023-05-02T08:14:45.749Z,4.00
2023-05-02T08:17:20.048Z,3.93
2023-05-02T08:19:53.172Z,3.40
2023-05-02T08:22:26.199Z,4.23
2023-05-02T08:24:59.167Z,4.50
2023-05-02T08:27:35.313Z,4.30
2023-05-02T08:30:09.093Z,4.90
2023-05-02T08:32:42.313Z,4.87
2023-05-02T08:35:15.380Z,5.00
2023-05-02T08:37:48.064Z,4.97
2023-05-02T08:40:33.613Z,4.83
2023-05-02T08:43:17.664Z,4.70
2023-05-02T08:45:51.118Z,4.90
2023-05-02T08:48:24.522Z,4.57
2023-05-02T08:50:57.607Z,5.13
2023-05-02T08:53:32.325Z,4.90
2023-05-02T08:56:05.493Z,5.60
2023-05-02T08:58:40.834Z,4.90
2023-05-02T09:01:15.346Z,5.13
2023-05-02T09:03:48.863Z,4.30
2023-05-02T09:06:23.103Z,4.17
2023-05-02T09:08:58.379Z,5.90
2023-05-02T09:11:31.522Z,5.73
2023-05-02T09:14:15.279Z,4.10
2023-05-02T09:16:48.784Z,4.03
2023-05-02T09:19:27.992Z,6.40
2023-05-02T09:22:01.985Z,4.73
2023-05-02T09:24:35.377Z,4.87
2023-05-02T09:27:08.398Z,5.07
2023-05-02T09:29:45.908Z,5.47
2023-05-02T09:32:20.529Z,4.93
2023-05-02T09:35:05.831Z,4.87
2023-05-02T09:37:38.967Z,5.30
2023-05-02T09:40:12.689Z,4.90
2023-05-02T09:42:45.917Z,4.67
2023-05-02T09:45:24.163Z,5.17
2023-05-02T09:48:03.373Z,4.77
2023-05-02T09:50:37.122Z,3.40
2023-05-02T09:53:11.961Z,3.70
2023-05-02T09:55:44.736Z,3.50
2023-05-02T09:58:22.613Z,4.13
2023-05-02T10:00:56.841Z,3.50
2023-05-02T10:03:34.449Z,3.00
2023-05-02T10:06:10.326Z,3.90
2023-05-02T10:08:44.557Z,3.20
2023-05-02T10:11:17.405Z,4.33
2023-05-02T10:13:50.753Z,2.57
2023-05-02T10:16:30.657Z,3.30
2023-05-02T10:19:04.845Z,3.60
2023-05-02T10:21:38.255Z,3.47
2023-05-02T10:24:11.969Z,3.13
2023-05-02T10:26:44.965Z,3.70
2023-05-02T10:29:18.096Z,3.43
2023-05-02T10:31:53.105Z,3.60
2023-05-02T10:34:26.689Z,3.90
2023-05-02T10:37:01.374Z,2.70
2023-05-02T10:39:34.533Z,3.60
2023-05-02T10:42:07.957Z,3.37
2023-05-02T10:44:41.561Z,3.20
2023-05-02T10:47:22.598Z,3.37
2023-05-02T10:49:58.467Z,3.70
2023-05-02T10:52:32.869Z,4.03
2023-05-02T10:55:15.763Z,4.43
2023-05-02T10:58:23.068Z,4.87
2023-05-02T11:01:16.004Z,4.57
2023-05-02T11:03:57.334Z,5.13
2023-05-02T11:06:30.846Z,4.50
2023-05-02T11:09:22.158Z,6.13
2023-05-02T11:11:57.148Z,4.77
2023-05-02T11:14:50.805Z,4.03
2023-05-02T11:17:23.823Z,5.73
2023-05-02T11:20:29.790Z,5.60
2023-05-02T11:23:22.890Z,5.07
2023-05-02T11:25:57.897Z,4.27
2023-05-02T11:28:42.127Z,5.60
2023-05-02T11:31:45.155Z,4.77
2023-05-02T11:34:18.091Z,4.37
2023-05-02T11:36:50.819Z,4.30
2023-05-02T11:39:26.072Z,5.30
2023-05-02T11:42:00.365Z,4.10
2023-05-02T11:44:33.435Z,3.50
2023-05-02T11:47:06.254Z,3.60
2023-05-02T11:49:39.277Z,3.53
2023-05-02T11:52:12.164Z,3.30
2023-05-02T11:54:44.944Z,3.70
2023-05-02T11:57:19.172Z,3.47
2023-05-02T11:59:54.198Z,3.80
2023-05-02T12:02:36.994Z,3.60
2023-05-02T12:05:10.770Z,4.00
2023-05-02T12:07:44.824Z,3.47
2023-05-02T12:10:17.996Z,4.40
2023-05-02T12:12:52.266Z,3.50
2023-05-02T12:15:25.891Z,2.50
2023-05-02T12:17:58.907Z,2.40
2023-05-02T12:20:31.884Z,3.80
2023-05-02T12:23:06.884Z,3.50
2023-05-02T12:25:40.713Z,3.07
2023-05-02T12:28:14.943Z,3.33
2023-05-02T12:30:48.900Z,4.20
2023-05-02T12:33:21.869Z,3.67
2023-05-02T12:35:54.650Z,3.90
2023-05-02T12:38:27.994Z,3.93
2023-05-02T12:41:00.879Z,4.00
2023-05-02T12:43:48.783Z,3.70
2023-05-02T12:46:21.681Z,9.37
2023-05-02T12:49:02.577Z,4.57
2023-05-02T12:51:36.479Z,4.23
2023-05-02T12:54:09.679Z,4.43
2023-05-02T12:56:43.691Z,3.80
2023-05-02T12:59:27.640Z,3.13
2023-05-02T13:02:00.893Z,3.90
2023-05-02T13:04:36.948Z,4.20
2023-05-02T13:07:09.781Z,4.83
2023-05-02T13:09:42.471Z,3.87
2023-05-02T13:12:15.331Z,4.40
2023-05-02T13:14:49.700Z,4.10
2023-05-02T13:17:22.955Z,4.17
2023-05-02T13:20:01.400Z,4.13
2023-05-02T13:22:35.191Z,4.27
2023-05-02T13:25:09.484Z,3.53
2023-05-02T13:27:42.406Z,3.43
2023-05-02T13:30:16.838Z,4.00
2023-05-02T13:32:50.003Z,3.63
2023-05-02T13:35:22.890Z,3.63
2023-05-02T13:37:55.701Z,3.17
2023-05-02T13:40:28.499Z,2.73
2023-05-02T13:43:01.503Z,3.20
2023-05-02T13:45:36.191Z,4.07
2023-05-02T13:48:09.037Z,3.40
2023-05-02T13:50:41.822Z,3.90
2023-05-02T13:53:14.795Z,3.70
2023-05-02T13:55:47.787Z,3.40
2023-05-02T13:58:20.590Z,4.30
2023-05-02T14:00:54.911Z,3.73
2023-05-02T14:03:30.794Z,4.27
2023-05-02T14:06:03.830Z,2.20
2023-05-02T14:08:36.742Z,4.03
2023-05-02T14:11:09.667Z,3.50
2023-05-02T14:13:42.762Z,3.50
2023-05-02T14:16:16.948Z,3.47
2023-05-02T14:18:50.137Z,4.33
2023-05-02T14:21:23.086Z,2.67
2023-05-02T14:23:56.009Z,4.33
2023-05-02T14:26:28.872Z,3.73
2023-05-02T14:29:02.173Z,3.57
2023-05-02T14:31:36.442Z,3.43
2023-05-02T14:34:09.438Z,3.77
2023-05-02T14:36:42.440Z,3.50
2023-05-02T14:39:15.354Z,3.77
2023-05-02T14:41:48.078Z,2.63
2023-05-02T14:44:21.005Z,3.00
2023-05-02T14:46:56.806Z,3.30
2023-05-02T14:49:31.873Z,3.00
2023-05-02T14:52:04.772Z,3.23
2023-05-02T14:54:37.663Z,3.40
2023-05-02T14:57:11.239Z,3.60
2023-05-02T14:59:44.151Z,3.67
2023-05-02T15:02:18.324Z,3.73
2023-05-02T15:04:53.531Z,3.73
2023-05-02T15:07:26.843Z,3.67
2023-05-02T15:09:59.991Z,4.07
2023-05-02T15:12:33.118Z,3.30
2023-05-02T15:15:06.298Z,3.40
2023-05-02T15:17:40.233Z,3.10
2023-05-02T15:20:14.103Z,3.43
2023-05-02T15:22:46.777Z,3.83
2023-05-02T15:25:19.972Z,3.80
2023-05-02T15:27:55.530Z,3.60
2023-05-02T15:30:28.360Z,3.83
2023-05-02T15:33:02.651Z,3.60
2023-05-02T15:35:35.894Z,3.10
2023-05-02T15:38:09.095Z,3.30
2023-05-02T15:40:41.884Z,3.70
2023-05-02T15:43:14.560Z,3.63
2023-05-02T15:45:51.271Z,3.90
2023-05-02T15:48:27.988Z,3.63
2023-05-02T15:51:01.330Z,3.50
2023-05-02T15:53:35.095Z,3.80
2023-05-02T15:56:08.873Z,4.10
2023-05-02T15:58:41.831Z,3.50
2023-05-02T16:01:14.611Z,3.40
2023-05-02T16:03:48.887Z,2.73
2023-05-02T16:06:21.871Z,3.00
2023-05-02T16:08:54.600Z,3.80
2023-05-02T16:11:27.730Z,3.60
2023-05-02T16:14:02.114Z,3.50
2023-05-02T16:16:35.785Z,3.13
2023-05-02T16:19:13.387Z,3.47
2023-05-02T16:21:46.301Z,3.47
2023-05-02T16:24:19.120Z,3.83
2023-05-02T16:26:52.046Z,4.50
2023-05-02T16:29:24.874Z,3.23
2023-05-02T16:31:58.007Z,4.40
2023-05-02T16:34:33.818Z,3.60
2023-05-02T16:37:06.613Z,3.97
2023-05-02T16:39:40.049Z,3.90
2023-05-02T16:42:12.795Z,4.10
2023-05-02T16:44:45.552Z,3.37
2023-05-02T16:47:19.038Z,3.20
2023-05-02T16:50:08.774Z,3.53
2023-05-02T16:52:41.658Z,3.97
2023-05-02T16:55:14.313Z,3.50
2023-05-02T16:57:47.167Z,3.63
2023-05-02T17:00:20.631Z,3.27
2023-05-02T17:02:56.856Z,3.50
2023-05-02T17:05:31.398Z,3.60
2023-05-02T17:08:04.283Z,3.57
2023-05-02T17:10:39.161Z,3.27
2023-05-02T17:13:23.732Z,3.70
2023-05-02T17:15:56.492Z,3.23
2023-05-02T17:18:29.656Z,3.47
2023-05-02T17:21:04.244Z,3.30
2023-05-02T17:23:37.085Z,3.37
2023-05-02T17:26:14.374Z,3.50
2023-05-02T17:28:47.264Z,3.00
2023-05-02T17:31:20.360Z,3.40
2023-05-02T17:33:53.148Z,3.13
2023-05-02T17:36:27.888Z,3.20
2023-05-02T17:39:00.724Z,6.30
2023-05-02T17:41:36.405Z,4.30
2023-05-02T17:44:10.294Z,3.60
2023-05-02T17:46:43.368Z,4.10
2023-05-02T17:49:22.155Z,3.40
2023-05-02T17:51:56.473Z,3.30
2023-05-02T17:54:29.184Z,3.83
2023-05-02T17:57:02.098Z,3.80
2023-05-02T17:59:35.076Z,3.33
2023-05-02T18:02:10.156Z,3.50
2023-05-02T18:04:45.281Z,3.30
2023-05-02T18:07:23.788Z,3.23
2023-05-02T18:10:02.209Z,3.20
2023-05-02T18:12:38.296Z,3.07
2023-05-02T18:15:11.320Z,2.60
2023-05-02T18:17:44.385Z,3.30
2023-05-02T18:20:17.287Z,3.20
2023-05-02T18:22:51.639Z,2.93
2023-05-02T18:25:24.467Z,11.80
2023-05-02T18:27:57.178Z,6.57
2023-05-02T18:30:30.046Z,17.17
2023-05-02T18:33:03.070Z,2.77
2023-05-02T18:35:36.457Z,2.90
2023-05-02T18:38:10.705Z,2.57
2023-05-02T18:40:43.736Z,3.07
2023-05-02T18:43:18.970Z,2.93
2023-05-02T18:45:51.811Z,2.40
2023-05-02T18:48:24.592Z,2.40
2023-05-02T18:50:57.625Z,2.43
2023-05-02T18:53:31.748Z,2.70
2023-05-02T18:56:04.724Z,2.67
2023-05-02T18:58:37.683Z,2.90
2023-05-02T19:01:14.906Z,2.63
2023-05-02T19:03:48.571Z,2.70
2023-05-02T19:06:21.744Z,2.70
2023-05-02T19:08:58.975Z,2.60
2023-05-02T19:11:31.889Z,3.00
2023-05-02T19:14:05.284Z,3.43
2023-05-02T19:16:40.121Z,2.43
2023-05-02T19:19:12.899Z,3.13
2023-05-02T19:21:50.390Z,2.83
2023-05-02T19:24:24.460Z,2.77
2023-05-02T19:26:57.833Z,2.47
2023-05-02T19:29:30.581Z,2.63
2023-05-02T19:32:03.957Z,3.53
2023-05-02T19:34:40.214Z,2.30
2023-05-02T19:37:12.941Z,3.10
2023-05-02T19:39:47.062Z,3.23
2023-05-02T19:42:21.921Z,3.30
2023-05-02T19:44:54.851Z,3.10
2023-05-02T19:47:28.634Z,2.83
2023-05-02T19:50:01.281Z,3.13
2023-05-02T19:52:34.420Z,2.43
2023-05-02T19:55:09.364Z,2.80
2023-05-02T19:57:44.641Z,2.33
2023-05-02T20:00:17.644Z,2.13
2023-05-02T20:02:51.407Z,2.33
2023-05-02T20:05:24.669Z,2.00
2023-05-02T20:07:57.578Z,2.63
2023-05-02T20:10:31.839Z,2.40
2023-05-02T20:13:04.884Z,13.57
2023-05-02T20:15:37.916Z,10.40
2023-05-02T20:18:11.216Z,2.80
2023-05-02T20:20:43.950Z,2.40
2023-05-02T20:23:17.141Z,2.73
2023-05-02T20:25:51.471Z,2.70
2023-05-02T20:28:25.022Z,2.47
2023-05-02T20:30:57.730Z,2.47
2023-05-02T20:33:43.556Z,2.60
2023-05-02T20:36:18.120Z,2.70
2023-05-02T20:38:50.874Z,2.90
2023-05-02T20:41:26.668Z,2.27
2023-05-02T20:44:01.447Z,2.53
2023-05-02T20:46:34.579Z,2.57
2023-05-02T20:49:08.172Z,2.77
2023-05-02T20:51:41.940Z,2.73
2023-05-02T20:54:14.818Z,2.90
2023-05-02T20:56:49.413Z,3.03
2023-05-02T20:59:25.499Z,2.70
2023-05-02T21:01:58.288Z,2.93
2023-05-02T21:04:31.209Z,2.70
2023-05-02T21:07:04.322Z,2.60
2023-05-02T21:09:37.426Z,2.50
2023-05-02T21:12:11.584Z,2.70
2023-05-02T21:14:44.425Z,3.07
2023-05-02T21:17:17.533Z,2.40
2023-05-02T21:19:50.265Z,2.77
2023-05-02T21:22:23.075Z,3.43
2023-05-02T21:24:56.088Z,3.07
2023-05-02T21:27:30.215Z,2.60
2023-05-02T21:30:03.053Z,3.10
2023-05-02T21:32:36.088Z,2.43
2023-05-02T21:35:12.072Z,3.27
2023-05-02T21:37:45.107Z,2.70
2023-05-02T21:40:20.945Z,2.93
2023-05-02T21:42:55.118Z,3.20
2023-05-02T21:45:28.152Z,2.77
2023-05-02T21:48:01.626Z,2.50
2023-05-02T21:50:34.407Z,2.50
2023-05-02T21:53:07.201Z,2.43
2023-05-02T21:55:41.065Z,2.70
2023-05-02T21:58:18.446Z,2.70
2023-05-02T22:00:51.309Z,3.27
2023-05-02T22:03:30.996Z,2.60
2023-05-02T22:06:06.390Z,2.50
2023-05-02T22:08:39.583Z,2.50
2023-05-02T22:11:12.569Z,2.77
2023-05-02T22:13:46.878Z,3.67
2023-05-02T22:16:19.943Z,2.53
2023-05-02T22:18:52.918Z,2.73
2023-05-02T22:21:25.825Z,2.80
2023-05-02T22:23:59.037Z,2.73
2023-05-02T22:26:31.859Z,2.53
2023-05-02T22:29:06.727Z,2.80
2023-05-02T22:31:39.587Z,2.77
2023-05-02T22:34:14.765Z,2.90
2023-05-02T22:36:51.817Z,2.57
2023-05-02T22:39:24.719Z,2.70
2023-05-02T22:41:59.567Z,2.80
2023-05-02T22:44:37.929Z,3.00
2023-05-02T22:47:16.701Z,3.10
2023-05-02T22:49:49.549Z,2.40
2023-05-02T22:52:22.505Z,2.20
2023-05-02T22:54:55.515Z,3.00
2023-05-02T22:57:28.394Z,3.00
2023-05-02T23:00:02.914Z,2.60
2023-05-02T23:02:35.963Z,2.67
2023-05-02T23:05:09.423Z,2.70
2023-05-02T23:07:43.263Z,2.93
2023-05-02T23:10:16.169Z,2.47
2023-05-02T23:12:48.996Z,2.63
2023-05-02T23:15:23.346Z,2.93
2023-05-02T23:17:56.312Z,2.80
2023-05-02T23:20:31.444Z,3.00
2023-05-02T23:23:04.545Z,2.73
2023-05-02T23:25:37.485Z,2.87
2023-05-02T23:28:10.413Z,2.73
2023-05-02T23:30:44.831Z,3.03
2023-05-02T23:33:17.673Z,2.90
2023-05-02T23:35:51.570Z,2.90
2023-05-02T23:38:24.504Z,3.17
2023-05-02T23:40:57.636Z,2.97
2023-05-02T23:43:32.606Z,3.00
2023-05-02T23:46:09.217Z,2.67
2023-05-02T23:48:42.042Z,3.20
2023-05-02T23:51:21.943Z,2.73
2023-05-02T23:53:54.683Z,3.00
2023-05-02T23:56:27.466Z,2.80
2023-05-02T23:59:00.311Z,2.40
